createdAt,value
2022-09-15T00:00:19.926Z,22.95
2022-09-15T00:02:50.771Z,23.01
2022-09-15T00:05:21.051Z,23.06
2022-09-15T00:07:51.662Z,23.15
2022-09-15T00:10:21.762Z,23.18
2022-09-15T00:12:51.750Z,23.22
2022-09-15T00:15:21.674Z,23.26
2022-09-15T00:17:54.065Z,23.33
2022-09-15T00:20:24.638Z,23.37
2022-09-15T00:22:54.805Z,23.41
2022-09-15T00:25:24.830Z,23.46
2022-09-15T00:27:54.778Z,23.51
2022-09-15T00:30:24.719Z,23.56
2022-09-15T00:32:55.763Z,23.59
2022-09-15T00:35:26.363Z,23.64
2022-09-15T00:37:57.776Z,23.70
2022-09-15T00:40:29.838Z,23.76
2022-09-15T00:43:01.655Z,23.79
2022-09-15T00:45:32.993Z,23.81
2022-09-15T00:48:15.185Z,23.88
2022-09-15T00:50:53.122Z,23.96
2022-09-15T00:53:25.205Z,23.96
2022-09-15T00:55:57.743Z,24.02
2022-09-15T00:59:02.809Z,24.06
2022-09-15T01:01:35.182Z,24.10
2022-09-15T01:04:06.106Z,24.18
2022-09-15T01:06:52.381Z,24.26
2022-09-15T01:09:32.599Z,24.30
2022-09-15T01:12:03.165Z,24.33
2022-09-15T01:14:33.539Z,24.36
2022-09-15T01:17:29.401Z,24.45
2022-09-15T01:20:39.188Z,24.45
2022-09-15T01:23:58.695Z,24.51
2022-09-15T01:26:40.575Z,24.50
2022-09-15T01:29:28.897Z,24.52
2022-09-15T01:32:45.210Z,24.54
2022-09-15T01:35:41.063Z,24.58
2022-09-15T01:38:34.960Z,24.64
2022-09-15T01:41:29.958Z,24.72
2022-09-15T01:44:18.488Z,24.82
2022-09-15T01:46:52.510Z,24.92
2022-09-15T01:49:27.571Z,25.00
2022-09-15T01:51:58.186Z,25.01
2022-09-15T01:54:38.865Z,25.05
2022-09-15T01:57:09.437Z,25.08
2022-09-15T01:59:39.471Z,25.16
2022-09-15T02:02:22.627Z,25.22
2022-09-15T02:05:02.240Z,25.24
2022-09-15T02:07:58.846Z,25.28
2022-09-15T02:10:52.612Z,25.26
2022-09-15T02:13:33.603Z,25.32
2022-09-15T02:16:03.807Z,25.36
2022-09-15T02:18:49.459Z,25.42
2022-09-15T02:21:25.484Z,25.50
2022-09-15T02:24:04.722Z,25.56
2022-09-15T02:26:37.160Z,25.65
2022-09-15T02:29:13.791Z,25.75
2022-09-15T02:31:51.763Z,25.82
2022-09-15T02:34:29.172Z,25.89
2022-09-15T02:36:59.728Z,25.98
2022-09-15T02:39:36.066Z,26.07
2022-09-15T02:42:06.928Z,26.13
2022-09-15T02:44:38.274Z,26.20
2022-09-15T02:47:08.939Z,26.26
2022-09-15T02:49:39.483Z,26.29
2022-09-15T02:52:09.585Z,26.34
2022-09-15T02:54:40.589Z,26.37
2022-09-15T02:57:11.234Z,26.43
2022-09-15T02:59:59.269Z,26.47
2022-09-15T03:02:29.505Z,26.51
2022-09-15T03:05:00.008Z,26.58
2022-09-15T03:07:30.175Z,26.61
2022-09-15T03:10:00.448Z,26.63
2022-09-15T03:12:31.696Z,26.66
2022-09-15T03:15:01.719Z,26.69
2022-09-15T03:17:36.191Z,26.73
2022-09-15T03:20:09.307Z,26.79
2022-09-15T03:22:39.817Z,26.84
2022-09-15T03:25:12.243Z,26.88
2022-09-15T03:27:43.608Z,26.92
2022-09-15T03:30:17.449Z,26.87
2022-09-15T03:32:47.661Z,26.93
2022-09-15T03:35:17.791Z,26.96
2022-09-15T03:37:47.738Z,27.00
2022-09-15T03:40:18.773Z,27.04
2022-09-15T03:42:49.079Z,27.09
2022-09-15T03:45:23.075Z,27.13
2022-09-15T03:47:56.620Z,27.16
2022-09-15T03:50:26.519Z,27.19
2022-09-15T03:52:58.800Z,27.22
2022-09-15T03:55:30.189Z,27.23
2022-09-15T03:58:00.371Z,27.24
2022-09-15T04:00:30.618Z,27.25
2022-09-15T04:03:00.626Z,27.23
2022-09-15T04:05:30.877Z,27.21
2022-09-15T04:08:01.363Z,27.22
2022-09-15T04:10:32.701Z,27.22
2022-09-15T04:13:02.701Z,27.24
2022-09-15T04:15:32.595Z,27.27
2022-09-15T04:18:02.709Z,27.31
2022-09-15T04:20:34.154Z,27.40
2022-09-15T04:23:04.143Z,27.44
2022-09-15T04:25:34.177Z,27.44
2022-09-15T04:28:04.326Z,27.45
2022-09-15T04:30:34.692Z,27.47
2022-09-15T04:33:04.910Z,27.49
2022-09-15T04:35:35.379Z,27.51
2022-09-15T04:38:05.435Z,27.54
2022-09-15T04:40:35.555Z,27.58
2022-09-15T04:43:06.107Z,27.63
2022-09-15T04:45:36.226Z,27.64
2022-09-15T04:48:06.631Z,27.66
2022-09-15T04:50:36.697Z,27.70
2022-09-15T04:53:06.714Z,27.73
2022-09-15T04:55:37.253Z,27.74
2022-09-15T04:58:07.701Z,27.75
2022-09-15T05:00:46.042Z,27.76
2022-09-15T05:03:16.777Z,27.74
2022-09-15T05:05:47.887Z,27.73
2022-09-15T05:08:18.142Z,27.70
2022-09-15T05:10:48.416Z,27.68
2022-09-15T05:13:18.649Z,27.64
2022-09-15T05:15:48.941Z,27.61
2022-09-15T05:18:19.335Z,27.64
2022-09-15T05:20:48.998Z,27.65
2022-09-15T05:23:20.266Z,27.66
2022-09-15T05:26:01.899Z,27.67
2022-09-15T05:28:38.938Z,27.71
2022-09-15T05:31:16.586Z,27.72
2022-09-15T05:33:49.344Z,27.76
2022-09-15T05:36:22.421Z,27.78
2022-09-15T05:38:58.392Z,27.81
2022-09-15T05:41:29.511Z,27.84
2022-09-15T05:44:04.472Z,27.88
2022-09-15T05:46:34.954Z,27.88
2022-09-15T05:49:05.143Z,27.91
2022-09-15T05:51:35.371Z,27.91
2022-09-15T05:54:05.561Z,27.94
2022-09-15T05:56:37.040Z,27.94
2022-09-15T05:59:07.615Z,27.98
2022-09-15T06:01:38.979Z,28.03
2022-09-15T06:04:10.828Z,28.07
2022-09-15T06:06:41.952Z,28.10
2022-09-15T06:09:12.949Z,28.14
2022-09-15T06:11:43.880Z,28.14
2022-09-15T06:14:15.692Z,28.18
2022-09-15T06:16:47.033Z,28.20
2022-09-15T06:19:17.771Z,28.22
2022-09-15T06:21:48.911Z,28.24
2022-09-15T06:24:20.619Z,28.25
2022-09-15T06:26:52.733Z,28.28
2022-09-15T06:29:23.078Z,28.32
2022-09-15T06:31:53.691Z,28.36
2022-09-15T06:34:24.734Z,28.40
2022-09-15T06:36:55.559Z,28.44
2022-09-15T06:39:26.231Z,28.46
2022-09-15T06:42:02.784Z,28.50
2022-09-15T06:44:34.936Z,28.50
2022-09-15T06:47:06.688Z,28.56
2022-09-15T06:49:37.384Z,28.58
2022-09-15T06:52:08.865Z,28.61
2022-09-15T06:54:40.372Z,28.66
2022-09-15T06:57:11.957Z,28.73
2022-09-15T06:59:44.219Z,28.75
2022-09-15T07:02:18.930Z,28.77
2022-09-15T07:04:52.779Z,28.79
2022-09-15T07:07:23.594Z,28.81
2022-09-15T07:09:54.356Z,28.83
2022-09-15T07:12:28.638Z,28.84
2022-09-15T07:15:01.150Z,28.88
2022-09-15T07:17:31.881Z,28.92
2022-09-15T07:20:03.524Z,28.94
2022-09-15T07:22:34.550Z,28.97
2022-09-15T07:25:09.012Z,29.02
2022-09-15T07:27:40.508Z,29.04
2022-09-15T07:30:11.908Z,29.07
2022-09-15T07:32:44.235Z,29.09
2022-09-15T07:35:15.147Z,29.11
2022-09-15T07:37:46.028Z,29.15
2022-09-15T07:40:18.105Z,29.18
2022-09-15T07:42:48.706Z,29.22
2022-09-15T07:45:19.587Z,29.26
2022-09-15T07:47:54.543Z,29.30
2022-09-15T07:50:25.571Z,29.36
2022-09-15T07:52:59.523Z,29.42
2022-09-15T07:55:32.749Z,29.45
2022-09-15T07:58:04.481Z,29.43
2022-09-15T08:00:34.857Z,29.48
2022-09-15T08:03:06.343Z,29.49
2022-09-15T08:05:40.338Z,29.50
2022-09-15T08:08:13.182Z,29.52
2022-09-15T08:10:44.419Z,29.52
2022-09-15T08:13:14.819Z,29.51
2022-09-15T08:15:45.253Z,29.51
2022-09-15T08:18:16.529Z,29.51
2022-09-15T08:20:47.294Z,29.51
2022-09-15T08:23:17.896Z,29.51
2022-09-15T08:25:49.449Z,29.51
2022-09-15T08:28:20.103Z,29.48
2022-09-15T08:30:50.559Z,29.47
2022-09-15T08:33:20.974Z,29.43
2022-09-15T08:35:51.515Z,29.47
2022-09-15T08:38:21.907Z,29.45
2022-09-15T08:40:59.656Z,29.44
2022-09-15T08:43:37.368Z,29.41
2022-09-15T08:46:17.923Z,29.36
2022-09-15T08:49:04.257Z,29.32
2022-09-15T08:51:50.042Z,29.28
2022-09-15T08:54:28.141Z,29.23
2022-09-15T08:57:00.246Z,29.16
2022-09-15T08:59:36.720Z,29.10
2022-09-15T09:02:34.212Z,29.04
2022-09-15T09:05:13.629Z,28.96
2022-09-15T09:08:34.395Z,28.89
2022-09-15T09:11:18.305Z,28.82
2022-09-15T09:14:15.008Z,28.75
2022-09-15T09:16:58.076Z,28.66
2022-09-15T09:19:50.078Z,28.60
2022-09-15T09:22:26.314Z,28.55
2022-09-15T09:25:11.635Z,28.48
2022-09-15T09:27:52.235Z,28.42
2022-09-15T09:30:25.435Z,28.38
2022-09-15T09:33:16.935Z,28.31
2022-09-15T09:35:56.589Z,28.25
2022-09-15T09:38:37.172Z,28.21
2022-09-15T09:41:13.769Z,28.15
2022-09-15T09:43:47.669Z,28.10
2022-09-15T09:46:21.514Z,28.04
2022-09-15T09:49:13.959Z,28.00
2022-09-15T09:52:03.627Z,27.94
2022-09-15T09:54:36.764Z,27.88
2022-09-15T09:57:17.150Z,27.84
2022-09-15T09:59:52.059Z,27.79
2022-09-15T10:02:25.944Z,27.73
2022-09-15T10:05:08.729Z,27.70
2022-09-15T10:07:47.147Z,27.63
2022-09-15T10:10:33.525Z,27.57
2022-09-15T10:13:06.074Z,27.58
2022-09-15T10:15:38.478Z,27.55
2022-09-15T10:18:08.982Z,27.50
2022-09-15T10:20:57.911Z,27.46
2022-09-15T10:23:33.427Z,27.41
2022-09-15T10:26:18.535Z,27.32
2022-09-15T10:29:14.047Z,27.23
2022-09-15T10:31:46.051Z,27.13
2022-09-15T10:34:29.337Z,27.05
2022-09-15T10:37:31.074Z,26.99
2022-09-15T10:40:02.952Z,26.93
2022-09-15T10:42:44.585Z,26.83
2022-09-15T10:45:22.356Z,26.77
2022-09-15T10:48:10.646Z,26.73
2022-09-15T10:51:18.959Z,26.66
2022-09-15T10:53:58.172Z,26.59
2022-09-15T10:56:50.858Z,26.54
2022-09-15T10:59:33.446Z,26.51
2022-09-15T11:02:37.668Z,26.45
2022-09-15T11:05:45.604Z,26.36
2022-09-15T11:08:43.193Z,26.32
2022-09-15T11:11:40.775Z,26.22
2022-09-15T11:14:28.879Z,26.12
2022-09-15T11:17:38.997Z,26.05
2022-09-15T11:20:20.852Z,26.02
2022-09-15T11:23:15.352Z,25.97
2022-09-15T11:25:50.523Z,25.95
2022-09-15T11:28:30.092Z,25.91
2022-09-15T11:31:10.868Z,25.90
2022-09-15T11:33:47.149Z,25.90
2022-09-15T11:39:04.206Z,25.89
2022-09-15T11:41:50.992Z,25.88
2022-09-15T11:44:52.520Z,25.85
2022-09-15T11:47:26.116Z,25.82
2022-09-15T11:50:28.144Z,25.78
2022-09-15T11:53:19.415Z,25.74
2022-09-15T11:55:55.804Z,25.69
2022-09-15T11:58:29.984Z,25.67
2022-09-15T12:01:12.767Z,25.66
2022-09-15T12:04:07.019Z,25.66
2022-09-15T12:07:25.091Z,25.62
2022-09-15T12:09:55.549Z,25.58
2022-09-15T12:12:30.665Z,25.55
2022-09-15T12:15:02.768Z,25.51
2022-09-15T12:17:49.770Z,25.51
2022-09-15T12:20:37.764Z,25.49
2022-09-15T12:23:23.534Z,25.45
2022-09-15T12:26:15.677Z,25.41
2022-09-15T12:29:04.469Z,25.39
2022-09-15T12:31:41.737Z,25.36
2022-09-15T12:34:27.963Z,25.31
2022-09-15T12:37:20.872Z,25.31
2022-09-15T12:39:51.556Z,25.28
2022-09-15T12:42:23.899Z,25.26
2022-09-15T12:45:00.885Z,25.24
2022-09-15T12:47:53.028Z,25.21
2022-09-15T12:50:36.795Z,25.21
2022-09-15T12:53:31.019Z,25.17
2022-09-15T12:56:06.460Z,25.12
2022-09-15T12:58:49.988Z,25.09
2022-09-15T13:01:27.143Z,25.07
2022-09-15T13:04:01.391Z,25.07
2022-09-15T13:06:35.606Z,25.07
2022-09-15T13:09:08.729Z,25.07
2022-09-15T13:11:53.496Z,25.02
2022-09-15T13:14:23.984Z,25.03
2022-09-15T13:17:04.521Z,25.01
2022-09-15T13:19:38.194Z,25.02
2022-09-15T13:22:15.874Z,25.02
2022-09-15T13:25:01.400Z,24.99
2022-09-15T13:27:47.457Z,24.98
2022-09-15T13:30:18.391Z,24.97
2022-09-15T13:33:03.000Z,24.95
2022-09-15T13:35:54.340Z,24.95
2022-09-15T13:38:48.754Z,24.92
2022-09-15T13:41:41.756Z,24.91
2022-09-15T13:44:36.655Z,24.88
2022-09-15T13:47:28.656Z,24.85
2022-09-15T13:50:25.857Z,24.82
2022-09-15T13:53:25.734Z,24.82
2022-09-15T13:55:57.828Z,24.82
2022-09-15T14:01:24.452Z,24.82
2022-09-15T14:04:22.198Z,24.80
2022-09-15T14:06:55.939Z,24.79
2022-09-15T14:09:46.127Z,24.77
2022-09-15T14:12:20.221Z,24.74
2022-09-15T14:14:59.351Z,24.71
2022-09-15T14:17:33.150Z,24.69
2022-09-15T14:20:07.497Z,24.67
2022-09-15T14:22:42.632Z,24.66
2022-09-15T14:25:21.140Z,24.65
2022-09-15T14:27:54.526Z,24.62
2022-09-15T14:30:36.546Z,24.61
2022-09-15T14:33:08.508Z,24.58
2022-09-15T14:35:39.962Z,24.55
2022-09-15T14:38:27.946Z,24.54
2022-09-15T14:41:00.812Z,24.54
2022-09-15T14:43:41.586Z,24.52
2022-09-15T14:46:22.617Z,24.49
2022-09-15T14:48:53.392Z,24.46
2022-09-15T14:51:27.337Z,24.46
2022-09-15T14:54:02.331Z,24.43
2022-09-15T14:56:39.033Z,24.40
2022-09-15T14:59:53.135Z,24.36
2022-09-15T15:02:49.367Z,24.32
2022-09-15T15:05:25.746Z,24.29
2022-09-15T15:07:58.250Z,24.24
2022-09-15T15:10:36.093Z,24.18
2022-09-15T15:13:20.285Z,24.15
2022-09-15T15:15:51.032Z,24.10
2022-09-15T15:18:43.201Z,24.07
2022-09-15T15:21:45.100Z,24.06
2022-09-15T15:24:15.375Z,24.02
2022-09-15T15:26:52.633Z,23.98
2022-09-15T15:29:45.773Z,23.96
2022-09-15T15:32:23.706Z,23.94
2022-09-15T15:35:02.485Z,23.91
2022-09-15T15:37:35.947Z,23.88
2022-09-15T15:40:15.846Z,23.85
2022-09-15T15:42:57.903Z,23.84
2022-09-15T15:45:32.815Z,23.83
2022-09-15T15:48:06.302Z,23.80
2022-09-15T15:50:37.027Z,23.78
2022-09-15T15:53:07.610Z,23.76
2022-09-15T15:55:45.426Z,23.76
2022-09-15T15:58:15.989Z,23.76
2022-09-15T16:00:58.099Z,23.71
2022-09-15T16:03:29.157Z,23.65
2022-09-15T16:06:04.598Z,23.60
2022-09-15T16:08:41.634Z,23.59
2022-09-15T16:11:15.139Z,23.56
2022-09-15T16:13:46.096Z,23.54
2022-09-15T16:16:21.226Z,23.51
2022-09-15T16:18:52.883Z,23.48
2022-09-15T16:21:31.831Z,23.46
2022-09-15T16:24:03.019Z,23.43
2022-09-15T16:26:35.994Z,23.41
2022-09-15T16:29:08.239Z,23.41
2022-09-15T16:31:40.061Z,23.38
2022-09-15T16:34:19.208Z,23.39
2022-09-15T16:36:50.009Z,23.35
2022-09-15T16:39:21.884Z,23.34
2022-09-15T16:41:52.599Z,23.33
2022-09-15T16:44:23.438Z,23.31
2022-09-15T16:46:55.281Z,23.28
2022-09-15T16:49:25.898Z,23.23
2022-09-15T16:51:57.090Z,23.20
2022-09-15T16:54:27.465Z,23.18
2022-09-15T16:56:57.533Z,23.16
2022-09-15T16:59:28.610Z,23.12
2022-09-15T17:01:59.188Z,23.11
2022-09-15T17:04:29.381Z,23.10
2022-09-15T17:07:00.464Z,23.07
2022-09-15T17:09:31.160Z,23.04
2022-09-15T17:12:01.469Z,23.02
2022-09-15T17:14:31.549Z,23.00
2022-09-15T17:17:01.509Z,22.96
2022-09-15T17:19:31.473Z,22.93
2022-09-15T17:22:01.406Z,22.92
2022-09-15T17:24:31.350Z,22.91
2022-09-15T17:27:02.426Z,22.90
2022-09-15T17:29:32.917Z,22.86
2022-09-15T17:32:04.788Z,22.85
2022-09-15T17:34:34.891Z,22.80
2022-09-15T17:37:04.884Z,22.76
2022-09-15T17:39:36.447Z,22.71
2022-09-15T17:42:06.469Z,22.66
2022-09-15T17:44:37.755Z,22.63
2022-09-15T17:47:08.405Z,22.60
2022-09-15T17:49:38.583Z,22.53
2022-09-15T17:52:13.380Z,22.50
2022-09-15T17:54:44.061Z,22.48
2022-09-15T17:57:14.422Z,22.46
2022-09-15T17:59:44.625Z,22.39
2022-09-15T18:02:20.344Z,22.38
2022-09-15T18:04:51.041Z,22.31
2022-09-15T18:07:21.212Z,22.29
2022-09-15T18:09:51.199Z,22.27
2022-09-15T18:12:21.647Z,22.23
2022-09-15T18:14:52.287Z,22.18
2022-09-15T18:17:22.287Z,22.12
2022-09-15T18:19:53.651Z,22.09
2022-09-15T18:22:24.931Z,22.09
2022-09-15T18:24:55.177Z,22.09
2022-09-15T18:27:25.205Z,22.11
2022-09-15T18:32:24.377Z,22.11
2022-09-15T18:34:54.384Z,22.11
2022-09-15T18:37:24.318Z,22.09
2022-09-15T18:39:54.417Z,22.07
2022-09-15T18:42:27.234Z,22.06
2022-09-15T18:44:59.981Z,22.06
2022-09-15T18:47:29.971Z,22.05
2022-09-15T18:50:00.007Z,22.03
2022-09-15T18:52:30.077Z,21.97
2022-09-15T18:55:01.080Z,21.96
2022-09-15T18:57:31.040Z,21.87
2022-09-15T19:00:00.944Z,21.85
2022-09-15T19:02:31.136Z,21.79
2022-09-15T19:05:01.093Z,21.73
2022-09-15T19:07:31.055Z,21.70
2022-09-15T19:10:01.968Z,21.65
2022-09-15T19:12:33.163Z,21.55
2022-09-15T19:15:04.256Z,21.58
2022-09-15T19:17:35.251Z,21.57
2022-09-15T19:20:09.504Z,21.58
2022-09-15T19:22:40.873Z,21.58
2022-09-15T19:25:12.856Z,21.59
2022-09-15T19:27:43.200Z,21.57
2022-09-15T19:30:14.165Z,21.59
2022-09-15T19:32:45.093Z,21.59
2022-09-15T19:35:15.796Z,21.59
2022-09-15T19:37:45.946Z,21.58
2022-09-15T19:40:17.142Z,21.59
2022-09-15T19:42:47.318Z,21.57
2022-09-15T19:45:17.319Z,21.59
2022-09-15T19:47:47.252Z,21.57
2022-09-15T19:50:17.204Z,21.57
2022-09-15T19:52:47.123Z,21.55
2022-09-15T19:55:19.451Z,21.58
2022-09-15T19:57:50.176Z,21.58
2022-09-15T20:00:20.580Z,21.58
2022-09-15T20:02:51.001Z,21.58
2022-09-15T20:05:33.712Z,21.57
2022-09-15T20:08:04.982Z,21.54
2022-09-15T20:10:35.166Z,21.49
2022-09-15T20:13:05.048Z,21.50
2022-09-15T20:15:34.948Z,21.48
2022-09-15T20:18:05.520Z,21.45
2022-09-15T20:20:37.444Z,21.42
2022-09-15T20:23:10.019Z,21.37
2022-09-15T20:25:40.585Z,21.37
2022-09-15T20:28:10.525Z,21.34
2022-09-15T20:30:40.870Z,21.31
2022-09-15T20:33:11.268Z,21.31
2022-09-15T20:35:40.471Z,21.30
2022-09-15T20:38:10.466Z,21.26
2022-09-15T20:40:40.395Z,21.23
2022-09-15T20:43:10.358Z,21.23
2022-09-15T20:45:41.384Z,21.21
2022-09-15T20:48:11.783Z,21.24
2022-09-15T20:50:41.784Z,21.22
2022-09-15T20:53:11.201Z,21.19
2022-09-15T20:55:41.182Z,21.17
2022-09-15T20:58:12.200Z,21.15
2022-09-15T21:00:42.828Z,21.14
2022-09-15T21:03:12.718Z,21.12
2022-09-15T21:05:46.536Z,21.12
2022-09-15T21:08:16.849Z,21.10
2022-09-15T21:10:48.152Z,21.08
2022-09-15T21:13:17.841Z,21.07
2022-09-15T21:15:59.097Z,21.05
2022-09-15T21:18:34.707Z,21.04
2022-09-15T21:21:14.397Z,20.99
2022-09-15T21:23:50.959Z,20.96
2022-09-15T21:26:25.858Z,20.89
2022-09-15T21:28:57.422Z,20.83
2022-09-15T21:31:30.249Z,20.78
2022-09-15T21:34:01.399Z,20.75
2022-09-15T21:36:32.623Z,20.71
2022-09-15T21:39:04.747Z,20.69
2022-09-15T21:41:34.948Z,20.65
2022-09-15T21:44:05.564Z,20.62
2022-09-15T21:46:35.468Z,20.61
2022-09-15T21:49:05.399Z,20.61
2022-09-15T21:51:35.296Z,20.67
2022-09-15T21:54:06.188Z,20.66
2022-09-15T21:56:36.006Z,20.68
2022-09-15T21:59:06.334Z,20.67
2022-09-15T22:01:37.141Z,20.62
2022-09-15T22:04:09.647Z,20.65
2022-09-15T22:06:41.949Z,20.63
2022-09-15T22:09:16.020Z,20.61
2022-09-15T22:11:46.705Z,20.62
2022-09-15T22:14:17.173Z,20.62
2022-09-15T22:16:47.368Z,20.63
2022-09-15T22:19:17.518Z,20.64
2022-09-15T22:21:47.627Z,20.64
2022-09-15T22:24:17.628Z,20.66
2022-09-15T22:26:47.501Z,20.62
2022-09-15T22:29:17.457Z,20.66
2022-09-15T22:31:47.605Z,20.67
2022-09-15T22:34:17.679Z,20.70
2022-09-15T22:36:47.654Z,20.72
2022-09-15T22:39:17.615Z,20.72
2022-09-15T22:41:47.606Z,20.73
2022-09-15T22:44:22.530Z,20.74
2022-09-15T22:46:53.622Z,20.74
2022-09-15T22:49:24.017Z,20.75
2022-09-15T22:51:54.102Z,20.78
2022-09-15T22:54:23.425Z,20.82
2022-09-15T22:56:53.354Z,20.82
2022-09-15T22:59:23.642Z,20.85
2022-09-15T23:01:53.967Z,20.88
2022-09-15T23:04:24.189Z,20.90
2022-09-15T23:06:54.265Z,20.95
2022-09-15T23:09:24.331Z,20.98
2022-09-15T23:11:54.581Z,21.03
2022-09-15T23:14:25.183Z,21.06
2022-09-15T23:16:56.878Z,21.09
2022-09-15T23:19:27.199Z,21.15
2022-09-15T23:21:58.726Z,21.20
2022-09-15T23:24:29.523Z,21.25
2022-09-15T23:27:00.327Z,21.31
2022-09-15T23:29:30.526Z,21.34
2022-09-15T23:32:00.889Z,21.41
2022-09-15T23:34:30.849Z,21.43
2022-09-15T23:37:00.936Z,21.49
2022-09-15T23:39:31.591Z,21.53
2022-09-15T23:42:02.231Z,21.60
2022-09-15T23:44:32.323Z,21.65
2022-09-15T23:47:02.362Z,21.69
2022-09-15T23:49:32.464Z,21.76
2022-09-15T23:52:02.666Z,21.83
2022-09-15T23:54:32.571Z,21.88
2022-09-15T23:57:02.482Z,21.93
2022-09-15T23:59:32.446Z,22.00
